createdAt,value
2022-08-28T00:00:42.341Z,5.60
2022-08-28T00:03:12.017Z,5.28
2022-08-28T00:05:40.265Z,4.93
2022-08-28T00:08:08.007Z,5.20
2022-08-28T00:10:35.494Z,4.75
2022-08-28T00:13:03.050Z,5.10
2022-08-28T00:15:34.070Z,4.20
2022-08-28T00:18:03.624Z,4.20
2022-08-28T00:20:32.534Z,3.90
2022-08-28T00:23:00.403Z,4.68
2022-08-28T00:25:29.025Z,5.00
2022-08-28T00:27:57.621Z,4.63
2022-08-28T00:30:27.800Z,4.43
2022-08-28T00:32:56.073Z,4.45
2022-08-28T00:35:24.168Z,4.45
2022-08-28T00:37:51.838Z,4.50
2022-08-28T00:40:30.677Z,4.45
2022-08-28T00:43:01.419Z,4.22
2022-08-28T00:45:29.292Z,4.10
2022-08-28T00:47:56.536Z,4.05
2022-08-28T00:50:25.232Z,4.03
2022-08-28T00:52:54.845Z,4.70
2022-08-28T00:55:23.663Z,4.75
2022-08-28T00:57:53.188Z,4.47
2022-08-28T01:00:22.881Z,4.50
2022-08-28T01:02:50.378Z,4.78
2022-08-28T01:05:18.064Z,4.80
2022-08-28T01:07:46.058Z,4.82
2022-08-28T01:10:16.772Z,4.43
2022-08-28T01:12:44.445Z,4.30
2022-08-28T01:15:14.414Z,4.40
2022-08-28T01:17:44.102Z,4.67
2022-08-28T01:20:14.236Z,4.32
2022-08-28T01:22:52.031Z,4.30
2022-08-28T01:25:20.780Z,4.95
2022-08-28T01:27:48.021Z,4.80
2022-08-28T01:30:17.552Z,4.53
2022-08-28T01:32:47.427Z,3.90
2022-08-28T01:35:16.191Z,3.92
2022-08-28T01:37:43.787Z,4.35
2022-08-28T01:40:12.556Z,3.65
2022-08-28T01:42:43.969Z,4.47
2022-08-28T01:45:12.459Z,4.30
2022-08-28T01:47:40.352Z,3.88
2022-08-28T01:50:09.338Z,4.00
2022-08-28T01:52:36.648Z,4.32
2022-08-28T01:55:05.845Z,3.92
2022-08-28T01:57:33.400Z,3.78
2022-08-28T02:00:00.696Z,3.38
2022-08-28T02:02:28.121Z,4.00
2022-08-28T02:04:55.398Z,3.67
2022-08-28T02:07:22.545Z,3.63
2022-08-28T02:09:49.816Z,3.85
2022-08-28T02:12:17.738Z,3.97
2022-08-28T02:14:46.191Z,3.80
2022-08-28T02:17:13.413Z,3.80
2022-08-28T02:19:40.791Z,3.83
2022-08-28T02:22:09.390Z,3.45
2022-08-28T02:24:37.180Z,3.83
2022-08-28T02:27:04.734Z,3.63
2022-08-28T02:29:32.646Z,3.58
2022-08-28T02:31:59.799Z,3.45
2022-08-28T02:34:27.197Z,4.22
2022-08-28T02:36:54.947Z,3.53
2022-08-28T02:39:22.250Z,3.50
2022-08-28T02:41:49.553Z,3.70
2022-08-28T02:44:17.335Z,3.67
2022-08-28T02:46:44.608Z,3.50
2022-08-28T02:49:11.692Z,3.83
2022-08-28T02:51:38.887Z,3.45
2022-08-28T02:54:06.340Z,3.88
2022-08-28T02:56:34.367Z,3.65
2022-08-28T02:59:01.575Z,3.25
2022-08-28T03:01:28.965Z,4.43
2022-08-28T03:03:56.165Z,3.80
2022-08-28T03:06:23.391Z,3.60
2022-08-28T03:08:50.744Z,4.05
2022-08-28T03:11:18.154Z,3.85
2022-08-28T03:13:45.661Z,4.03
2022-08-28T03:16:13.046Z,4.15
2022-08-28T03:18:40.715Z,3.72
2022-08-28T03:21:08.244Z,3.63
2022-08-28T03:23:35.534Z,3.25
2022-08-28T03:26:05.352Z,4.32
2022-08-28T03:28:43.079Z,3.20
2022-08-28T03:31:11.844Z,3.90
2022-08-28T03:33:42.534Z,3.72
2022-08-28T03:36:11.242Z,3.60
2022-08-28T03:38:38.891Z,3.35
2022-08-28T03:41:10.536Z,3.42
2022-08-28T03:43:38.035Z,3.42
2022-08-28T03:46:06.416Z,3.63
2022-08-28T03:48:37.654Z,3.47
2022-08-28T03:53:33.084Z,3.50
2022-08-28T03:56:00.922Z,3.53
2022-08-28T03:58:28.590Z,3.22
2022-08-28T04:00:55.947Z,3.80
2022-08-28T04:03:23.643Z,2.97
2022-08-28T04:05:52.002Z,3.72
2022-08-28T04:08:20.020Z,3.45
2022-08-28T04:10:47.482Z,3.17
2022-08-28T04:13:16.141Z,3.63
2022-08-28T04:15:43.518Z,3.17
2022-08-28T04:18:10.954Z,3.72
2022-08-28T04:20:38.988Z,3.17
2022-08-28T04:23:08.743Z,3.55
2022-08-28T04:25:35.914Z,3.65
2022-08-28T04:28:03.440Z,3.42
2022-08-28T04:30:30.647Z,3.95
2022-08-28T04:32:58.331Z,3.90
2022-08-28T04:35:27.749Z,3.85
2022-08-28T04:37:58.754Z,3.50
2022-08-28T04:42:53.481Z,3.25
2022-08-28T04:45:21.962Z,3.50
2022-08-28T04:47:49.354Z,3.88
2022-08-28T04:50:16.657Z,3.67
2022-08-28T04:52:44.029Z,3.42
2022-08-28T04:55:11.520Z,3.58
2022-08-28T04:57:38.877Z,3.80
2022-08-28T05:00:07.499Z,4.15
2022-08-28T05:02:34.751Z,4.10
2022-08-28T05:05:03.670Z,3.88
2022-08-28T05:07:31.392Z,3.90
2022-08-28T05:09:58.799Z,3.95
2022-08-28T05:12:26.675Z,3.90
2022-08-28T05:14:54.087Z,4.72
2022-08-28T05:17:21.340Z,11.38
2022-08-28T05:19:48.500Z,11.02
2022-08-28T05:22:16.297Z,8.45
2022-08-28T05:24:43.438Z,7.57
2022-08-28T05:27:10.880Z,7.53
2022-08-28T05:29:38.150Z,5.93
2022-08-28T05:32:05.569Z,4.97
2022-08-28T05:34:32.687Z,5.05
2022-08-28T05:37:00.046Z,5.10
2022-08-28T05:39:27.149Z,4.90
2022-08-28T05:41:54.585Z,4.38
2022-08-28T05:44:22.103Z,5.25
2022-08-28T05:46:49.340Z,4.60
2022-08-28T05:49:18.550Z,4.38
2022-08-28T05:51:46.519Z,4.97
2022-08-28T05:54:14.920Z,4.90
2022-08-28T05:56:42.649Z,4.78
2022-08-28T05:59:10.841Z,5.18
2022-08-28T06:01:42.745Z,5.50
2022-08-28T06:04:11.970Z,6.47
2022-08-28T06:06:41.337Z,6.45
2022-08-28T06:09:15.933Z,6.90
2022-08-28T06:11:46.286Z,5.82
2022-08-28T06:14:17.392Z,5.60
2022-08-28T06:16:45.954Z,5.30
2022-08-28T06:19:13.921Z,5.30
2022-08-28T06:21:41.672Z,4.95
2022-08-28T06:24:09.528Z,4.30
2022-08-28T06:26:36.877Z,4.35
2022-08-28T06:29:05.976Z,3.60
2022-08-28T06:31:33.925Z,3.50
2022-08-28T06:34:01.752Z,3.50
2022-08-28T06:36:30.613Z,3.42
2022-08-28T06:38:58.830Z,3.42
2022-08-28T06:41:27.392Z,3.70
2022-08-28T06:43:55.188Z,3.58
2022-08-28T06:46:23.019Z,3.88
2022-08-28T06:48:50.505Z,3.30
2022-08-28T06:51:18.008Z,2.92
2022-08-28T06:53:47.006Z,2.60
2022-08-28T06:56:25.689Z,2.67
2022-08-28T06:58:54.173Z,2.90
2022-08-28T07:01:24.212Z,2.47
2022-08-28T07:03:52.619Z,2.80
2022-08-28T07:06:22.046Z,2.40
2022-08-28T07:08:49.354Z,2.20
2022-08-28T07:11:22.050Z,2.28
2022-08-28T07:13:53.988Z,3.00
2022-08-28T07:16:22.257Z,2.50
2022-08-28T07:18:49.682Z,2.30
2022-08-28T07:21:17.366Z,2.08
2022-08-28T07:23:46.220Z,2.05
2022-08-28T07:26:15.473Z,2.38
2022-08-28T07:28:42.662Z,2.22
2022-08-28T07:31:17.306Z,2.10
2022-08-28T07:33:44.956Z,2.20
2022-08-28T07:36:15.772Z,2.90
2022-08-28T07:38:47.810Z,2.38
2022-08-28T07:41:19.817Z,2.10
2022-08-28T07:44:06.010Z,2.70
2022-08-28T07:46:33.672Z,2.38
2022-08-28T07:49:01.436Z,2.10
2022-08-28T07:51:28.971Z,2.75
2022-08-28T07:53:59.618Z,2.30
2022-08-28T07:56:29.639Z,2.42
2022-08-28T07:59:01.338Z,1.90
2022-08-28T08:01:30.769Z,1.80
2022-08-28T08:04:01.898Z,1.83
2022-08-28T08:06:34.396Z,1.95
2022-08-28T08:09:02.542Z,2.60
2022-08-28T08:11:32.629Z,1.73
2022-08-28T08:14:05.438Z,2.28
2022-08-28T08:16:34.753Z,2.10
2022-08-28T08:19:10.269Z,1.95
2022-08-28T08:21:37.616Z,2.13
2022-08-28T08:24:05.738Z,2.50
2022-08-28T08:26:33.502Z,2.17
2022-08-28T08:29:00.850Z,1.88
2022-08-28T08:31:29.853Z,2.17
2022-08-28T08:33:58.214Z,1.88
2022-08-28T08:36:26.485Z,2.30
2022-08-28T08:38:59.584Z,1.92
2022-08-28T08:41:51.219Z,2.05
2022-08-28T08:46:45.850Z,1.90
2022-08-28T08:49:18.534Z,2.20
2022-08-28T08:51:53.699Z,1.80
2022-08-28T08:54:21.741Z,2.20
2022-08-28T08:56:50.211Z,1.90
2022-08-28T08:59:22.643Z,1.70
2022-08-28T09:02:05.436Z,2.05
2022-08-28T09:04:41.156Z,1.77
2022-08-28T09:07:17.343Z,1.73
2022-08-28T09:09:47.441Z,1.90
2022-08-28T09:12:42.922Z,2.47
2022-08-28T09:15:13.915Z,2.03
2022-08-28T09:17:44.825Z,1.63
2022-08-28T09:20:15.016Z,1.77
2022-08-28T09:22:46.725Z,1.85
2022-08-28T09:25:33.792Z,1.55
2022-08-28T09:28:08.431Z,1.50
2022-08-28T09:30:35.974Z,1.90
2022-08-28T09:33:03.476Z,1.52
2022-08-28T09:35:32.779Z,1.60
2022-08-28T09:38:20.241Z,1.73
2022-08-28T09:41:09.780Z,2.00
2022-08-28T09:43:38.115Z,2.00
2022-08-28T09:46:08.849Z,1.80
2022-08-28T09:48:41.326Z,2.00
2022-08-28T09:51:10.716Z,2.05
2022-08-28T09:53:44.254Z,2.00
2022-08-28T09:56:16.650Z,1.88
2022-08-28T09:58:52.162Z,1.80
2022-08-28T10:01:45.110Z,2.00
2022-08-28T10:04:33.115Z,1.90
2022-08-28T10:07:13.650Z,1.80
2022-08-28T10:09:56.030Z,1.73
2022-08-28T10:12:43.728Z,1.70
2022-08-28T10:15:16.178Z,2.65
2022-08-28T10:18:01.995Z,1.75
2022-08-28T10:20:49.380Z,1.77
2022-08-28T10:23:31.265Z,2.00
2022-08-28T10:26:18.635Z,1.92
2022-08-28T10:28:56.702Z,1.70
2022-08-28T10:31:36.329Z,1.70
2022-08-28T10:34:11.383Z,1.70
2022-08-28T10:36:38.903Z,1.60
2022-08-28T10:39:15.023Z,1.40
2022-08-28T10:42:03.263Z,2.05
2022-08-28T10:44:37.394Z,1.30
2022-08-28T10:47:06.220Z,1.60
2022-08-28T10:49:41.605Z,1.23
2022-08-28T10:52:08.944Z,1.60
2022-08-28T10:54:42.142Z,1.67
2022-08-28T10:57:12.195Z,1.65
2022-08-28T10:59:42.117Z,1.33
2022-08-28T11:04:37.503Z,1.52
2022-08-28T11:07:07.542Z,1.30
2022-08-28T11:09:41.253Z,1.50
2022-08-28T11:12:17.523Z,1.55
2022-08-28T11:14:48.604Z,1.60
2022-08-28T11:17:22.719Z,1.50
2022-08-28T11:19:59.157Z,1.60
2022-08-28T11:22:41.301Z,1.65
2022-08-28T11:25:10.005Z,1.58
2022-08-28T11:27:38.586Z,1.80
2022-08-28T11:30:11.753Z,1.70
2022-08-28T11:32:39.108Z,1.45
2022-08-28T11:35:33.834Z,1.38
2022-08-28T11:38:01.385Z,1.60
2022-08-28T11:40:34.398Z,1.23
2022-08-28T11:43:16.983Z,1.80
2022-08-28T11:45:47.783Z,1.60
2022-08-28T11:48:23.861Z,1.58
2022-08-28T11:50:55.869Z,1.40
2022-08-28T11:53:26.065Z,1.40
2022-08-28T11:56:08.499Z,1.17
2022-08-28T11:58:45.378Z,1.67
2022-08-28T12:01:14.370Z,1.60
2022-08-28T12:03:43.476Z,1.30
2022-08-28T12:06:11.895Z,1.60
2022-08-28T12:08:45.135Z,1.65
2022-08-28T12:11:32.432Z,1.83
2022-08-28T12:13:59.949Z,1.70
2022-08-28T12:16:27.339Z,1.40
2022-08-28T12:18:54.874Z,1.42
2022-08-28T12:21:23.757Z,1.40
2022-08-28T12:23:58.984Z,1.60
2022-08-28T12:26:29.974Z,1.85
2022-08-28T12:29:02.161Z,1.83
2022-08-28T12:32:00.292Z,1.58
2022-08-28T12:34:30.435Z,1.88
2022-08-28T12:36:59.302Z,1.70
2022-08-28T12:39:26.982Z,1.90
2022-08-28T12:41:54.200Z,1.42
2022-08-28T12:44:26.412Z,1.52
2022-08-28T12:46:54.562Z,1.80
2022-08-28T12:49:33.894Z,1.73
2022-08-28T12:52:08.812Z,1.38
2022-08-28T12:54:36.207Z,1.40
2022-08-28T12:57:08.230Z,1.40
2022-08-28T12:59:37.665Z,1.50
2022-08-28T13:02:12.620Z,1.45
2022-08-28T13:05:05.848Z,1.40
2022-08-28T13:07:35.983Z,1.08
2022-08-28T13:10:23.017Z,1.48
2022-08-28T13:13:05.895Z,1.50
2022-08-28T13:15:43.637Z,1.40
2022-08-28T13:18:33.018Z,1.30
2022-08-28T13:21:12.386Z,1.27
2022-08-28T13:23:40.319Z,1.40
2022-08-28T13:26:07.933Z,1.50
2022-08-28T13:28:39.751Z,1.55
2022-08-28T13:31:07.396Z,1.33
2022-08-28T13:33:34.694Z,1.60
2022-08-28T13:36:19.537Z,1.40
2022-08-28T13:38:46.734Z,1.70
2022-08-28T13:41:14.192Z,1.40
2022-08-28T13:43:47.937Z,1.50
2022-08-28T13:46:15.594Z,1.42
2022-08-28T13:48:42.757Z,1.42
2022-08-28T13:51:12.024Z,1.40
2022-08-28T13:53:47.333Z,1.35
2022-08-28T13:56:14.932Z,1.58
2022-08-28T13:58:42.365Z,1.48
2022-08-28T14:01:10.576Z,1.40
2022-08-28T14:03:38.937Z,1.70
2022-08-28T14:06:09.197Z,1.73
2022-08-28T14:11:04.412Z,1.60
2022-08-28T14:13:31.975Z,1.30
2022-08-28T14:15:59.206Z,1.50
2022-08-28T14:18:28.302Z,1.30
2022-08-28T14:20:55.494Z,1.30
2022-08-28T14:23:23.128Z,1.20
2022-08-28T14:25:50.715Z,1.25
2022-08-28T14:28:19.030Z,1.60
2022-08-28T14:30:50.738Z,1.40
2022-08-28T14:33:20.804Z,1.58
2022-08-28T14:35:48.917Z,2.60
2022-08-28T14:38:16.645Z,1.88
2022-08-28T14:40:45.103Z,1.42
2022-08-28T14:43:13.601Z,1.40
2022-08-28T14:45:48.280Z,1.40
2022-08-28T14:48:17.442Z,1.30
2022-08-28T14:50:48.714Z,1.50
2022-08-28T14:53:17.045Z,1.42
2022-08-28T14:55:46.217Z,1.50
2022-08-28T14:58:13.433Z,1.70
2022-08-28T15:00:45.616Z,1.30
2022-08-28T15:03:13.977Z,1.60
2022-08-28T15:05:41.504Z,1.70
2022-08-28T15:08:09.895Z,1.40
2022-08-28T15:10:42.171Z,1.80
2022-08-28T15:13:15.162Z,1.38
2022-08-28T15:15:47.512Z,1.70
2022-08-28T15:18:17.895Z,1.60
2022-08-28T15:20:48.128Z,1.60
2022-08-28T15:23:15.955Z,1.70
2022-08-28T15:25:43.758Z,1.73
2022-08-28T15:28:14.311Z,1.50
2022-08-28T15:30:45.464Z,1.60
2022-08-28T15:33:16.660Z,1.50
2022-08-28T15:35:45.327Z,1.50
2022-08-28T15:38:12.570Z,1.65
2022-08-28T15:41:01.477Z,1.42
2022-08-28T15:43:29.411Z,1.48
2022-08-28T15:45:56.742Z,1.40
2022-08-28T15:48:24.242Z,1.70
2022-08-28T15:50:51.819Z,1.30
2022-08-28T15:53:22.204Z,1.58
2022-08-28T15:55:55.409Z,1.50
2022-08-28T15:58:22.766Z,1.35
2022-08-28T16:00:50.494Z,1.63
2022-08-28T16:03:17.894Z,1.48
2022-08-28T16:05:45.672Z,1.40
2022-08-28T16:08:12.838Z,1.63
2022-08-28T16:10:41.110Z,1.40
2022-08-28T16:13:08.901Z,1.50
2022-08-28T16:15:36.213Z,2.05
2022-08-28T16:18:08.712Z,1.35
2022-08-28T16:20:36.811Z,1.58
2022-08-28T16:23:04.204Z,1.50
2022-08-28T16:25:31.552Z,1.80
2022-08-28T16:28:02.167Z,1.50
2022-08-28T16:30:29.647Z,1.70
2022-08-28T16:32:57.198Z,1.55
2022-08-28T16:35:24.862Z,1.52
2022-08-28T16:37:52.479Z,1.80
2022-08-28T16:40:21.072Z,1.90
2022-08-28T16:42:51.682Z,1.60
2022-08-28T16:45:19.585Z,1.55
2022-08-28T16:47:46.788Z,1.27
2022-08-28T16:50:14.819Z,1.50
2022-08-28T16:52:42.325Z,1.60
2022-08-28T16:55:10.274Z,1.40
2022-08-28T16:57:39.785Z,1.60
2022-08-28T17:00:13.478Z,1.50
2022-08-28T17:02:41.077Z,1.30
2022-08-28T17:05:17.197Z,1.70
2022-08-28T17:07:49.802Z,1.40
2022-08-28T17:10:19.024Z,1.80
2022-08-28T17:12:48.938Z,1.80
2022-08-28T17:15:16.406Z,1.73
2022-08-28T17:17:44.952Z,1.40
2022-08-28T17:20:33.485Z,1.70
2022-08-28T17:23:01.386Z,1.80
2022-08-28T17:25:28.589Z,1.60
2022-08-28T17:27:55.871Z,1.80
2022-08-28T17:30:23.533Z,1.73
2022-08-28T17:32:51.941Z,1.48
2022-08-28T17:35:19.141Z,1.70
2022-08-28T17:37:46.712Z,1.38
2022-08-28T17:40:16.760Z,1.50
2022-08-28T17:42:45.711Z,1.25
2022-08-28T17:45:13.917Z,2.08
2022-08-28T17:47:43.147Z,1.35
2022-08-28T17:50:10.599Z,1.58
2022-08-28T17:52:38.038Z,1.75
2022-08-28T17:55:05.518Z,1.90
2022-08-28T17:57:34.762Z,2.05
2022-08-28T18:00:05.227Z,1.80
2022-08-28T18:02:33.048Z,1.80
2022-08-28T18:05:01.786Z,2.00
2022-08-28T18:07:29.982Z,1.70
2022-08-28T18:09:59.464Z,1.80
2022-08-28T18:12:26.692Z,1.70
2022-08-28T18:14:54.116Z,1.65
2022-08-28T18:17:21.560Z,1.80
2022-08-28T18:19:48.897Z,1.58
2022-08-28T18:22:16.236Z,1.67
2022-08-28T18:24:43.986Z,1.73
2022-08-28T18:27:11.217Z,1.75
2022-08-28T18:29:39.684Z,1.40
2022-08-28T18:32:07.769Z,1.60
2022-08-28T18:34:35.275Z,1.92
2022-08-28T18:37:05.126Z,1.70
2022-08-28T18:39:32.592Z,1.75
2022-08-28T18:42:00.074Z,2.13
2022-08-28T18:44:27.339Z,2.00
2022-08-28T18:46:54.621Z,2.22
2022-08-28T18:49:23.108Z,1.58
2022-08-28T18:51:50.368Z,1.73
2022-08-28T18:54:18.993Z,1.40
2022-08-28T18:56:46.426Z,1.50
2022-08-28T18:59:15.841Z,1.70
2022-08-28T19:01:43.270Z,1.77
2022-08-28T19:04:10.635Z,1.50
2022-08-28T19:06:37.818Z,1.65
2022-08-28T19:09:05.660Z,1.95
2022-08-28T19:11:32.907Z,1.60
2022-08-28T19:14:04.107Z,1.60
2022-08-28T19:16:32.117Z,2.22
2022-08-28T19:19:02.486Z,1.48
2022-08-28T19:21:30.364Z,1.77
2022-08-28T19:23:57.911Z,1.60
2022-08-28T19:26:25.948Z,1.55
2022-08-28T19:28:55.327Z,1.70
2022-08-28T19:31:23.495Z,1.50
2022-08-28T19:33:52.059Z,1.70
2022-08-28T19:36:19.345Z,2.05
2022-08-28T19:38:46.802Z,1.85
2022-08-28T19:41:16.636Z,1.55
2022-08-28T19:43:44.806Z,2.00
2022-08-28T19:46:14.073Z,1.65
2022-08-28T19:48:50.409Z,1.58
2022-08-28T19:51:23.189Z,1.63
2022-08-28T19:53:58.653Z,1.80
2022-08-28T19:56:27.645Z,2.08
2022-08-28T19:58:56.521Z,1.77
2022-08-28T20:01:23.911Z,1.48
2022-08-28T20:03:51.346Z,1.60
2022-08-28T20:06:19.233Z,1.50
2022-08-28T20:08:46.578Z,1.70
2022-08-28T20:11:24.604Z,1.45
2022-08-28T20:13:53.043Z,1.48
2022-08-28T20:16:20.386Z,2.10
2022-08-28T20:18:50.357Z,1.77
2022-08-28T20:21:22.883Z,1.70
2022-08-28T20:24:04.785Z,1.52
2022-08-28T20:26:35.729Z,2.08
2022-08-28T20:29:03.462Z,2.25
2022-08-28T20:31:30.690Z,2.40
2022-08-28T20:33:57.870Z,1.60
2022-08-28T20:36:27.366Z,1.98
2022-08-28T20:38:54.857Z,1.65
2022-08-28T20:41:22.665Z,1.70
2022-08-28T20:43:50.317Z,1.77
2022-08-28T20:46:17.651Z,1.67
2022-08-28T20:48:45.349Z,1.80
2022-08-28T20:51:13.026Z,2.17
2022-08-28T20:53:40.262Z,3.33
2022-08-28T20:56:09.287Z,2.78
2022-08-28T20:58:37.954Z,1.80
2022-08-28T21:01:05.664Z,1.73
2022-08-28T21:03:35.650Z,1.70
2022-08-28T21:06:02.842Z,1.73
2022-08-28T21:08:31.310Z,2.13
2022-08-28T21:10:59.775Z,1.70
2022-08-28T21:13:29.989Z,1.48
2022-08-28T21:15:57.353Z,1.80
2022-08-28T21:18:24.527Z,1.70
2022-08-28T21:20:51.986Z,1.70
2022-08-28T21:23:20.655Z,1.65
2022-08-28T21:25:48.436Z,1.85
2022-08-28T21:28:16.083Z,2.05
2022-08-28T21:30:43.534Z,1.83
2022-08-28T21:33:10.996Z,2.00
2022-08-28T21:35:40.525Z,1.73
2022-08-28T21:38:07.945Z,2.08
2022-08-28T21:40:36.403Z,1.90
2022-08-28T21:43:03.761Z,1.90
2022-08-28T21:45:31.022Z,2.00
2022-08-28T21:47:58.375Z,1.90
2022-08-28T21:50:29.126Z,1.52
2022-08-28T21:52:56.948Z,1.98
2022-08-28T21:55:24.964Z,2.22
2022-08-28T21:57:52.170Z,1.90
2022-08-28T22:00:20.952Z,1.80
2022-08-28T22:02:48.645Z,1.90
2022-08-28T22:05:16.835Z,2.15
2022-08-28T22:07:45.088Z,2.28
2022-08-28T22:10:12.699Z,1.85
2022-08-28T22:12:40.058Z,1.98
2022-08-28T22:15:07.504Z,2.25
2022-08-28T22:17:36.848Z,2.22
2022-08-28T22:20:04.743Z,1.88
2022-08-28T22:22:50.724Z,2.30
2022-08-28T22:25:18.060Z,2.15
2022-08-28T22:27:46.663Z,1.95
2022-08-28T22:30:13.944Z,1.70
2022-08-28T22:32:41.252Z,2.00
2022-08-28T22:35:09.528Z,1.88
2022-08-28T22:37:37.814Z,2.00
2022-08-28T22:40:09.440Z,2.03
2022-08-28T22:42:41.080Z,1.90
2022-08-28T22:45:09.597Z,2.20
2022-08-28T22:47:36.907Z,2.30
2022-08-28T22:50:04.732Z,2.25
2022-08-28T22:52:32.852Z,2.00
2022-08-28T22:55:00.156Z,2.28
2022-08-28T22:57:27.436Z,2.20
2022-08-28T22:59:54.833Z,2.17
2022-08-28T23:02:22.076Z,1.75
2022-08-28T23:04:54.473Z,2.08
2022-08-28T23:07:21.593Z,1.65
2022-08-28T23:09:49.458Z,2.40
2022-08-28T23:12:16.642Z,2.00
2022-08-28T23:14:48.229Z,2.20
2022-08-28T23:17:16.931Z,2.33
2022-08-28T23:19:44.367Z,2.17
2022-08-28T23:22:13.844Z,2.30
2022-08-28T23:24:41.165Z,2.17
2022-08-28T23:27:34.311Z,2.38
2022-08-28T23:29:56.127Z,2.42
2022-08-28T23:32:23.386Z,2.40
2022-08-28T23:34:51.038Z,2.53
2022-08-28T23:37:18.275Z,2.50
2022-08-28T23:39:45.712Z,2.78
2022-08-28T23:42:13.144Z,3.00
2022-08-28T23:44:40.486Z,2.88
2022-08-28T23:47:07.885Z,2.85
2022-08-28T23:49:42.632Z,2.50
2022-08-28T23:52:10.304Z,2.63
2022-08-28T23:54:39.591Z,2.75
2022-08-28T23:57:08.405Z,3.03
2022-08-28T23:59:36.924Z,2.67
